sensor_id;sensor_type;location;lat;lon;timestamp;pressure;altitude;pressure_sealevel;temperature;humidity
61474;BME280;53694;49.784;30.150;2024-02-23T00:00:40;99243.80;;;5.43;73.84
61474;BME280;53694;49.784;30.150;2024-02-23T00:01:42;99256.45;;;5.60;73.51
61474;BME280;53694;49.784;30.150;2024-02-23T00:02:43;99259.57;;;5.83;72.81
61474;BME280;53694;49.784;30.150;2024-02-23T00:03:45;99266.42;;;6.01;71.96
61474;BME280;53694;49.784;30.150;2024-02-23T00:04:46;99251.90;;;6.22;71.39
61474;BME280;53694;49.784;30.150;2024-02-23T00:05:48;99251.30;;;6.41;70.71
61474;BME280;53694;49.784;30.150;2024-02-23T00:06:49;99251.41;;;6.57;69.79
61474;BME280;53694;49.784;30.150;2024-02-23T00:07:51;99254.80;;;6.66;69.28
61474;BME280;53694;49.784;30.150;2024-02-23T00:08:53;99242.63;;;6.75;68.86
61474;BME280;53694;49.784;30.150;2024-02-23T00:09:55;99240.45;;;6.81;68.70
61474;BME280;53694;49.784;30.150;2024-02-23T00:10:56;99250.36;;;6.73;68.69
61474;BME280;53694;49.784;30.150;2024-02-23T00:11:58;99237.33;;;6.55;69.12
61474;BME280;53694;49.784;30.150;2024-02-23T00:12:59;99240.08;;;6.30;69.86
61474;BME280;53694;49.784;30.150;2024-02-23T00:14:01;99253.59;;;6.02;70.78
61474;BME280;53694;49.784;30.150;2024-02-23T00:15:03;99248.65;;;5.71;71.89
61474;BME280;53694;49.784;30.150;2024-02-23T00:16:05;99243.80;;;5.43;72.95
61474;BME280;53694;49.784;30.150;2024-02-23T00:17:07;99249.11;;;5.28;73.92
61474;BME280;53694;49.784;30.150;2024-02-23T00:18:08;99243.98;;;5.26;74.36
61474;BME280;53694;49.784;30.150;2024-02-23T00:19:10;99245.51;;;5.36;74.41
61474;BME280;53694;49.784;30.150;2024-02-23T00:20:12;99237.95;;;5.54;74.05
61474;BME280;53694;49.784;30.150;2024-02-23T00:21:14;99245.83;;;5.80;73.36
61474;BME280;53694;49.784;30.150;2024-02-23T00:22:15;99247.00;;;6.03;72.47
61474;BME280;53694;49.784;30.150;2024-02-23T00:23:17;99231.67;;;6.23;71.65
61474;BME280;53694;49.784;30.150;2024-02-23T00:24:18;99239.28;;;6.42;70.74
61474;BME280;53694;49.784;30.150;2024-02-23T00:25:20;99231.63;;;6.60;70.01
61474;BME280;53694;49.784;30.150;2024-02-23T00:26:22;99231.72;;;6.75;69.58
61474;BME280;53694;49.784;30.150;2024-02-23T00:27:23;99237.94;;;6.88;68.94
61474;BME280;53694;49.784;30.150;2024-02-23T00:28:25;99236.89;;;6.93;68.29
61474;BME280;53694;49.784;30.150;2024-02-23T00:29:26;99221.30;;;6.93;68.16
61474;BME280;53694;49.784;30.150;2024-02-23T00:30:28;99239.55;;;6.77;68.53
61474;BME280;53694;49.784;30.150;2024-02-23T00:31:29;99228.44;;;6.58;69.05
61474;BME280;53694;49.784;30.150;2024-02-23T00:32:30;99235.06;;;6.32;69.79
61474;BME280;53694;49.784;30.150;2024-02-23T00:33:32;99226.33;;;6.02;70.84
61474;BME280;53694;49.784;30.150;2024-02-23T00:34:34;99232.30;;;5.71;71.90
61474;BME280;53694;49.784;30.150;2024-02-23T00:35:35;99228.73;;;5.46;72.97
61474;BME280;53694;49.784;30.150;2024-02-23T00:36:38;99239.33;;;5.26;74.05
61474;BME280;53694;49.784;30.150;2024-02-23T00:37:40;99241.95;;;5.23;74.68
61474;BME280;53694;49.784;30.150;2024-02-23T00:38:42;99238.34;;;5.31;74.75
61474;BME280;53694;49.784;30.150;2024-02-23T00:39:44;99233.16;;;5.50;74.31
61474;BME280;53694;49.784;30.150;2024-02-23T00:40:45;99233.89;;;5.72;73.65
61474;BME280;53694;49.784;30.150;2024-02-23T00:41:47;99238.25;;;5.97;73.07
61474;BME280;53694;49.784;30.150;2024-02-23T00:42:48;99230.44;;;6.20;71.92
61474;BME280;53694;49.784;30.150;2024-02-23T00:43:50;99234.50;;;6.39;71.12
61474;BME280;53694;49.784;30.150;2024-02-23T00:44:51;99237.41;;;6.58;70.52
61474;BME280;53694;49.784;30.150;2024-02-23T00:45:53;99222.70;;;6.75;69.73
61474;BME280;53694;49.784;30.150;2024-02-23T00:46:55;99225.41;;;6.87;69.09
61474;BME280;53694;49.784;30.150;2024-02-23T00:47:56;99226.05;;;6.96;68.63
61474;BME280;53694;49.784;30.150;2024-02-23T00:48:58;99224.47;;;6.95;68.31
61474;BME280;53694;49.784;30.150;2024-02-23T00:49:59;99222.48;;;6.80;68.61
61474;BME280;53694;49.784;30.150;2024-02-23T00:51:02;99221.40;;;6.57;69.34
61474;BME280;53694;49.784;30.150;2024-02-23T00:52:04;99228.81;;;6.32;70.17
61474;BME280;53694;49.784;30.150;2024-02-23T00:53:05;99218.95;;;6.03;71.15
61474;BME280;53694;49.784;30.150;2024-02-23T00:54:07;99223.66;;;5.69;72.47
61474;BME280;53694;49.784;30.150;2024-02-23T00:55:09;99230.00;;;5.48;73.54
61474;BME280;53694;49.784;30.150;2024-02-23T00:56:10;99213.05;;;5.43;74.13
61474;BME280;53694;49.784;30.150;2024-02-23T00:57:12;99226.26;;;5.53;74.21
61474;BME280;53694;49.784;30.150;2024-02-23T00:58:13;99228.31;;;5.68;73.90
61474;BME280;53694;49.784;30.150;2024-02-23T00:59:15;99210.29;;;5.88;73.33
61474;BME280;53694;49.784;30.150;2024-02-23T01:00:17;99206.34;;;6.10;72.52
61474;BME280;53694;49.784;30.150;2024-02-23T01:01:19;99215.07;;;6.28;71.85
61474;BME280;53694;49.784;30.150;2024-02-23T01:02:20;99212.09;;;6.45;71.10
61474;BME280;53694;49.784;30.150;2024-02-23T01:03:22;99222.77;;;6.63;70.58
61474;BME280;53694;49.784;30.150;2024-02-23T01:04:24;99212.69;;;6.79;69.90
61474;BME280;53694;49.784;30.150;2024-02-23T01:05:25;99218.11;;;6.91;69.32
61474;BME280;53694;49.784;30.150;2024-02-23T01:06:27;99211.72;;;6.99;68.79
61474;BME280;53694;49.784;30.150;2024-02-23T01:07:28;99216.74;;;6.97;68.61
61474;BME280;53694;49.784;30.150;2024-02-23T01:08:30;99215.63;;;6.86;69.00
61474;BME280;53694;49.784;30.150;2024-02-23T01:09:31;99209.56;;;6.65;69.54
61474;BME280;53694;49.784;30.150;2024-02-23T01:10:33;99200.52;;;6.36;70.35
61474;BME280;53694;49.784;30.150;2024-02-23T01:11:34;99208.63;;;6.08;71.39
61474;BME280;53694;49.784;30.150;2024-02-23T01:12:36;99216.64;;;5.80;72.36
61474;BME280;53694;49.784;30.150;2024-02-23T01:13:37;99219.80;;;5.58;73.60
61474;BME280;53694;49.784;30.150;2024-02-23T01:14:39;99217.17;;;5.49;74.29
61474;BME280;53694;49.784;30.150;2024-02-23T01:15:41;99202.98;;;5.56;74.47
61474;BME280;53694;49.784;30.150;2024-02-23T01:16:44;99214.69;;;5.68;74.18
61474;BME280;53694;49.784;30.150;2024-02-23T01:17:45;99214.27;;;5.91;73.77
61474;BME280;53694;49.784;30.150;2024-02-23T01:18:47;99208.74;;;6.12;72.88
61474;BME280;53694;49.784;30.150;2024-02-23T01:19:48;99203.84;;;6.30;72.22
61474;BME280;53694;49.784;30.150;2024-02-23T01:20:50;99197.33;;;6.46;71.62
61474;BME280;53694;49.784;30.150;2024-02-23T01:21:51;99194.33;;;6.64;70.85
61474;BME280;53694;49.784;30.150;2024-02-23T01:22:53;99202.13;;;6.78;70.40
61474;BME280;53694;49.784;30.150;2024-02-23T01:23:54;99195.13;;;6.92;69.96
61474;BME280;53694;49.784;30.150;2024-02-23T01:24:56;99188.93;;;7.08;69.08
61474;BME280;53694;49.784;30.150;2024-02-23T01:25:57;99191.41;;;7.13;68.60
61474;BME280;53694;49.784;30.150;2024-02-23T01:26:58;99188.93;;;7.08;68.52
61474;BME280;53694;49.784;30.150;2024-02-23T01:28:00;99189.23;;;6.90;68.95
61474;BME280;53694;49.784;30.150;2024-02-23T01:29:02;99191.61;;;6.64;69.68
61474;BME280;53694;49.784;30.150;2024-02-23T01:30:04;99189.17;;;6.34;70.67
61474;BME280;53694;49.784;30.150;2024-02-23T01:31:09;99191.25;;;6.00;71.97
61474;BME280;53694;49.784;30.150;2024-02-23T01:32:11;99191.88;;;5.73;73.04
61474;BME280;53694;49.784;30.150;2024-02-23T01:33:12;99188.13;;;5.53;74.05
61474;BME280;53694;49.784;30.150;2024-02-23T01:34:14;99194.91;;;5.47;74.60
61474;BME280;53694;49.784;30.150;2024-02-23T01:35:16;99181.98;;;5.56;74.68
61474;BME280;53694;49.784;30.150;2024-02-23T01:36:17;99185.31;;;5.74;74.40
61474;BME280;53694;49.784;30.150;2024-02-23T01:37:19;99185.56;;;5.93;73.85
61474;BME280;53694;49.784;30.150;2024-02-23T01:38:20;99180.66;;;6.11;73.17
61474;BME280;53694;49.784;30.150;2024-02-23T01:39:22;99186.77;;;6.33;72.37
61474;BME280;53694;49.784;30.150;2024-02-23T01:40:24;99165.94;;;6.53;71.70
61474;BME280;53694;49.784;30.150;2024-02-23T01:41:25;99169.88;;;6.67;70.81
61474;BME280;53694;49.784;30.150;2024-02-23T01:42:26;99173.80;;;6.82;70.35
61474;BME280;53694;49.784;30.150;2024-02-23T01:43:28;99180.36;;;6.93;69.80
61474;BME280;53694;49.784;30.150;2024-02-23T01:44:30;99186.89;;;7.05;69.38
61474;BME280;53694;49.784;30.150;2024-02-23T01:45:32;99185.16;;;7.12;68.86
61474;BME280;53694;49.784;30.150;2024-02-23T01:46:33;99175.73;;;7.10;68.73
61474;BME280;53694;49.784;30.150;2024-02-23T01:47:35;99180.00;;;6.95;68.82
61474;BME280;53694;49.784;30.150;2024-02-23T01:48:37;99184.75;;;6.70;69.57
61474;BME280;53694;49.784;30.150;2024-02-23T01:49:38;99172.80;;;6.34;70.75
61474;BME280;53694;49.784;30.150;2024-02-23T01:50:40;99187.26;;;5.98;72.12
61474;BME280;53694;49.784;30.150;2024-02-23T01:51:42;99194.03;;;5.67;73.28
61474;BME280;53694;49.784;30.150;2024-02-23T01:52:44;99192.66;;;5.49;74.27
61474;BME280;53694;49.784;30.150;2024-02-23T01:53:45;99196.39;;;5.44;74.91
61474;BME280;53694;49.784;30.150;2024-02-23T01:54:47;99195.50;;;5.53;74.93
61474;BME280;53694;49.784;30.150;2024-02-23T01:55:49;99194.03;;;5.67;74.67
61474;BME280;53694;49.784;30.150;2024-02-23T01:56:52;99198.95;;;5.86;74.20
61474;BME280;53694;49.784;30.150;2024-02-23T01:57:54;99192.59;;;6.07;73.48
61474;BME280;53694;49.784;30.150;2024-02-23T01:58:56;99184.28;;;6.28;72.89
61474;BME280;53694;49.784;30.150;2024-02-23T01:59:58;99186.53;;;6.50;72.08
61474;BME280;53694;49.784;30.150;2024-02-23T02:01:00;99178.86;;;6.68;71.09
61474;BME280;53694;49.784;30.150;2024-02-23T02:02:02;99187.44;;;6.82;70.63
61474;BME280;53694;49.784;30.150;2024-02-23T02:03:04;99188.55;;;6.93;69.93
61474;BME280;53694;49.784;30.150;2024-02-23T02:04:06;99187.14;;;6.99;69.54
61474;BME280;53694;49.784;30.150;2024-02-23T02:05:07;99169.02;;;7.07;69.28
61474;BME280;53694;49.784;30.150;2024-02-23T02:06:10;99181.89;;;7.07;69.19
61474;BME280;53694;49.784;30.150;2024-02-23T02:07:11;99170.91;;;6.91;69.33
61474;BME280;53694;49.784;30.150;2024-02-23T02:08:13;99178.29;;;6.62;70.12
61474;BME280;53694;49.784;30.150;2024-02-23T02:09:15;99176.67;;;6.33;71.00
61474;BME280;53694;49.784;30.150;2024-02-23T02:10:17;99176.13;;;6.03;72.11
61474;BME280;53694;49.784;30.150;2024-02-23T02:11:19;99179.75;;;5.83;73.16
61474;BME280;53694;49.784;30.150;2024-02-23T02:12:27;99177.14;;;5.74;73.81
61474;BME280;53694;49.784;30.150;2024-02-23T02:13:29;99175.33;;;5.78;74.01
61474;BME280;53694;49.784;30.150;2024-02-23T02:14:31;99168.27;;;5.89;73.90
61474;BME280;53694;49.784;30.150;2024-02-23T02:15:33;99168.06;;;6.07;73.53
61474;BME280;53694;49.784;30.150;2024-02-23T02:16:34;99165.55;;;6.26;72.93
61474;BME280;53694;49.784;30.150;2024-02-23T02:17:36;99164.13;;;6.44;72.17
61474;BME280;53694;49.784;30.150;2024-02-23T02:18:38;99171.25;;;6.61;71.59
61474;BME280;53694;49.784;30.150;2024-02-23T02:19:45;99166.11;;;6.72;70.86
61474;BME280;53694;49.784;30.150;2024-02-23T02:20:55;99168.44;;;6.86;70.47
61474;BME280;53694;49.784;30.150;2024-02-23T02:21:57;99174.64;;;6.98;70.01
61474;BME280;53694;49.784;30.150;2024-02-23T02:22:59;99172.13;;;7.13;69.35
61474;BME280;53694;49.784;30.150;2024-02-23T02:24:00;99172.13;;;7.21;68.64
61474;BME280;53694;49.784;30.150;2024-02-23T02:25:02;99162.19;;;7.29;68.26
61474;BME280;53694;49.784;30.150;2024-02-23T02:26:04;99186.83;;;7.17;68.26
61474;BME280;53694;49.784;30.150;2024-02-23T02:27:06;99177.37;;;6.98;69.04
61474;BME280;53694;49.784;30.150;2024-02-23T02:28:08;99166.22;;;6.75;69.80
61474;BME280;53694;49.784;30.150;2024-02-23T02:29:09;99165.72;;;6.45;70.61
61474;BME280;53694;49.784;30.150;2024-02-23T02:30:13;99168.97;;;6.11;71.79
61474;BME280;53694;49.784;30.150;2024-02-23T02:31:14;99173.83;;;5.81;72.94
61474;BME280;53694;49.784;30.150;2024-02-23T02:32:16;99176.34;;;5.61;73.93
61474;BME280;53694;49.784;30.150;2024-02-23T02:33:18;99174.62;;;5.57;74.58
61474;BME280;53694;49.784;30.150;2024-02-23T02:34:19;99164.30;;;5.62;74.73
61474;BME280;53694;49.784;30.150;2024-02-23T02:35:21;99167.94;;;5.79;74.45
61474;BME280;53694;49.784;30.150;2024-02-23T02:36:22;99163.08;;;5.96;73.92
61474;BME280;53694;49.784;30.150;2024-02-23T02:37:24;99162.59;;;6.19;73.38
61474;BME280;53694;49.784;30.150;2024-02-23T02:38:26;99164.38;;;6.39;72.81
61474;BME280;53694;49.784;30.150;2024-02-23T02:39:28;99172.75;;;6.59;71.76
61474;BME280;53694;49.784;30.150;2024-02-23T02:40:29;99173.26;;;6.76;71.06
61474;BME280;53694;49.784;30.150;2024-02-23T02:41:31;99175.23;;;6.92;70.58
61474;BME280;53694;49.784;30.150;2024-02-23T02:42:33;99174.84;;;7.06;69.68
61474;BME280;53694;49.784;30.150;2024-02-23T02:43:35;99175.02;;;7.13;69.32
61474;BME280;53694;49.784;30.150;2024-02-23T02:44:36;99168.97;;;7.19;68.95
61474;BME280;53694;49.784;30.150;2024-02-23T02:45:37;99174.79;;;7.18;68.97
61474;BME280;53694;49.784;30.150;2024-02-23T02:46:40;99175.64;;;7.06;68.92
61474;BME280;53694;49.784;30.150;2024-02-23T02:47:41;99173.80;;;6.82;69.57
61474;BME280;53694;49.784;30.150;2024-02-23T02:48:43;99175.63;;;6.50;70.45
61474;BME280;53694;49.784;30.150;2024-02-23T02:49:44;99164.09;;;6.16;71.66
61474;BME280;53694;49.784;30.150;2024-02-23T02:50:46;99166.92;;;5.83;72.87
61474;BME280;53694;49.784;30.150;2024-02-23T02:51:48;99166.45;;;5.57;74.13
61474;BME280;53694;49.784;30.150;2024-02-23T02:52:49;99170.08;;;5.48;74.79
61474;BME280;53694;49.784;30.150;2024-02-23T02:53:51;99167.92;;;5.54;74.99
61474;BME280;53694;49.784;30.150;2024-02-23T02:54:52;99173.70;;;5.65;74.84
61474;BME280;53694;49.784;30.150;2024-02-23T02:55:54;99168.85;;;5.83;74.44
61474;BME280;53694;49.784;30.150;2024-02-23T02:56:55;99181.02;;;5.97;73.71
61474;BME280;53694;49.784;30.150;2024-02-23T02:57:57;99163.27;;;6.16;73.18
61474;BME280;53694;49.784;30.150;2024-02-23T02:58:58;99160.75;;;6.35;72.69
61474;BME280;53694;49.784;30.150;2024-02-23T03:00:00;99155.37;;;6.51;71.92
61474;BME280;53694;49.784;30.150;2024-02-23T03:01:02;99161.13;;;6.62;71.31
61474;BME280;53694;49.784;30.150;2024-02-23T03:02:04;99148.05;;;6.67;70.99
61474;BME280;53694;49.784;30.150;2024-02-23T03:03:06;99167.01;;;6.76;70.71
61474;BME280;53694;49.784;30.150;2024-02-23T03:04:08;99167.75;;;6.89;70.41
61474;BME280;53694;49.784;30.150;2024-02-23T03:05:10;99162.57;;;6.99;69.90
61474;BME280;53694;49.784;30.150;2024-02-23T03:06:11;99169.45;;;7.09;69.59
61474;BME280;53694;49.784;30.150;2024-02-23T03:07:13;99159.69;;;7.08;69.19
61474;BME280;53694;49.784;30.150;2024-02-23T03:08:14;99162.14;;;6.97;69.31
61474;BME280;53694;49.784;30.150;2024-02-23T03:09:16;99168.70;;;6.81;69.87
61474;BME280;53694;49.784;30.150;2024-02-23T03:10:17;99160.59;;;6.56;70.64
61474;BME280;53694;49.784;30.150;2024-02-23T03:11:19;99167.59;;;6.29;71.50
61474;BME280;53694;49.784;30.150;2024-02-23T03:12:20;99177.97;;;5.99;72.53
61474;BME280;53694;49.784;30.150;2024-02-23T03:13:22;99163.16;;;5.75;73.64
61474;BME280;53694;49.784;30.150;2024-02-23T03:14:25;99171.80;;;5.65;74.36
61474;BME280;53694;49.784;30.150;2024-02-23T03:15:26;99164.54;;;5.69;74.58
61474;BME280;53694;49.784;30.150;2024-02-23T03:16:28;99157.16;;;5.82;74.43
61474;BME280;53694;49.784;30.150;2024-02-23T03:17:30;99155.26;;;5.95;74.02
61474;BME280;53694;49.784;30.150;2024-02-23T03:18:31;99155.80;;;6.13;73.59
61474;BME280;53694;49.784;30.150;2024-02-23T03:19:33;99157.80;;;6.28;72.90
61474;BME280;53694;49.784;30.150;2024-02-23T03:20:35;99154.15;;;6.36;72.32
61474;BME280;53694;49.784;30.150;2024-02-23T03:21:36;99172.75;;;6.59;71.78
61474;BME280;53694;49.784;30.150;2024-02-23T03:22:38;99166.80;;;6.69;71.30
61474;BME280;53694;49.784;30.150;2024-02-23T03:23:39;99166.07;;;6.84;70.87
61474;BME280;53694;49.784;30.150;2024-02-23T03:24:41;99167.60;;;6.97;70.39
61474;BME280;53694;49.784;30.150;2024-02-23T03:25:43;99166.73;;;7.09;69.89
61474;BME280;53694;49.784;30.150;2024-02-23T03:26:44;99165.09;;;7.20;69.29
61474;BME280;53694;49.784;30.150;2024-02-23T03:27:46;99164.39;;;7.23;68.94
61474;BME280;53694;49.784;30.150;2024-02-23T03:28:47;99176.80;;;7.21;68.89
61474;BME280;53694;49.784;30.150;2024-02-23T03:29:49;99176.33;;;7.03;68.91
61474;BME280;53694;49.784;30.150;2024-02-23T03:30:50;99173.16;;;6.73;69.83
61474;BME280;53694;49.784;30.150;2024-02-23T03:31:52;99173.81;;;6.42;70.92
61474;BME280;53694;49.784;30.150;2024-02-23T03:32:53;99168.77;;;6.04;72.21
61474;BME280;53694;49.784;30.150;2024-02-23T03:33:55;99177.45;;;5.72;73.41
61474;BME280;53694;49.784;30.150;2024-02-23T03:34:56;99174.83;;;5.51;74.72
61474;BME280;53694;49.784;30.150;2024-02-23T03:35:58;99175.28;;;5.41;75.26
61474;BME280;53694;49.784;30.150;2024-02-23T03:37:00;99172.33;;;5.46;75.73
61474;BME280;53694;49.784;30.150;2024-02-23T03:38:01;99174.16;;;5.55;75.47
61474;BME280;53694;49.784;30.150;2024-02-23T03:39:02;99166.23;;;5.74;75.18
61474;BME280;53694;49.784;30.150;2024-02-23T03:40:06;99176.59;;;5.93;74.48
61474;BME280;53694;49.784;30.150;2024-02-23T03:41:08;99171.45;;;6.16;74.06
61474;BME280;53694;49.784;30.150;2024-02-23T03:42:09;99169.05;;;6.39;73.16
61474;BME280;53694;49.784;30.150;2024-02-23T03:43:11;99179.80;;;6.60;72.28
61474;BME280;53694;49.784;30.150;2024-02-23T03:44:12;99178.00;;;6.80;71.74
61474;BME280;53694;49.784;30.150;2024-02-23T03:45:14;99169.44;;;6.93;70.75
61474;BME280;53694;49.784;30.150;2024-02-23T03:46:15;99179.05;;;7.03;70.17
61474;BME280;53694;49.784;30.150;2024-02-23T03:47:17;99188.23;;;7.11;69.83
61474;BME280;53694;49.784;30.150;2024-02-23T03:48:19;99179.10;;;7.19;69.51
61474;BME280;53694;49.784;30.150;2024-02-23T03:49:20;99184.30;;;7.24;69.43
61474;BME280;53694;49.784;30.150;2024-02-23T03:50:22;99171.80;;;7.23;69.06
61474;BME280;53694;49.784;30.150;2024-02-23T03:51:23;99178.01;;;7.08;69.28
61474;BME280;53694;49.784;30.150;2024-02-23T03:52:25;99178.11;;;6.83;70.08
61474;BME280;53694;49.784;30.150;2024-02-23T03:53:26;99165.94;;;6.53;70.85
61474;BME280;53694;49.784;30.150;2024-02-23T03:54:28;99171.92;;;6.18;71.99
61474;BME280;53694;49.784;30.150;2024-02-23T03:55:31;99171.46;;;5.91;73.24
61474;BME280;53694;49.784;30.150;2024-02-23T03:56:41;99168.06;;;5.82;74.06
61474;BME280;53694;49.784;30.150;2024-02-23T03:57:43;99171.23;;;5.84;74.29
61474;BME280;53694;49.784;30.150;2024-02-23T03:58:44;99173.98;;;5.96;74.29
61474;BME280;53694;49.784;30.150;2024-02-23T03:59:55;99171.37;;;6.12;73.91
61474;BME280;53694;49.784;30.150;2024-02-23T04:00:57;99169.50;;;6.29;73.44
61474;BME280;53694;49.784;30.150;2024-02-23T04:01:58;99173.68;;;6.50;72.89
61474;BME280;53694;49.784;30.150;2024-02-23T04:03:00;99182.38;;;6.68;72.27
61474;BME280;53694;49.784;30.150;2024-02-23T04:04:02;99189.59;;;6.89;71.49
61474;BME280;53694;49.784;30.150;2024-02-23T04:05:04;99185.66;;;7.02;70.63
61474;BME280;53694;49.784;30.150;2024-02-23T04:06:06;99181.20;;;7.10;70.30
61474;BME280;53694;49.784;30.150;2024-02-23T04:07:07;99170.45;;;7.17;69.80
61474;BME280;53694;49.784;30.150;2024-02-23T04:08:09;99173.64;;;7.19;69.47
61474;BME280;53694;49.784;30.150;2024-02-23T04:09:10;99169.76;;;7.20;69.66
61474;BME280;53694;49.784;30.150;2024-02-23T04:10:12;99169.33;;;7.18;69.42
61474;BME280;53694;49.784;30.150;2024-02-23T04:11:14;99171.66;;;7.04;69.85
61474;BME280;53694;49.784;30.150;2024-02-23T04:12:15;99168.59;;;6.77;70.65
61474;BME280;53694;49.784;30.150;2024-02-23T04:13:19;99171.52;;;6.44;71.57
61474;BME280;53694;49.784;30.150;2024-02-23T04:14:20;99165.91;;;6.12;72.79
61474;BME280;53694;49.784;30.150;2024-02-23T04:15:22;99171.23;;;5.84;74.00
61474;BME280;53694;49.784;30.150;2024-02-23T04:16:24;99178.72;;;5.75;74.83
61474;BME280;53694;49.784;30.150;2024-02-23T04:17:25;99172.60;;;5.78;75.10
61474;BME280;53694;49.784;30.150;2024-02-23T04:18:27;99166.69;;;5.88;75.06
61474;BME280;53694;49.784;30.150;2024-02-23T04:19:29;99174.89;;;6.00;74.68
61474;BME280;53694;49.784;30.150;2024-02-23T04:20:30;99173.06;;;6.17;74.36
61474;BME280;53694;49.784;30.150;2024-02-23T04:21:32;99175.06;;;6.32;73.68
61474;BME280;53694;49.784;30.150;2024-02-23T04:22:33;99171.39;;;6.53;73.38
61474;BME280;53694;49.784;30.150;2024-02-23T04:23:35;99172.69;;;6.71;72.67
61474;BME280;53694;49.784;30.150;2024-02-23T04:24:39;99173.22;;;6.89;71.98
61474;BME280;53694;49.784;30.150;2024-02-23T04:25:41;99165.77;;;7.17;70.84
61474;BME280;53694;49.784;30.150;2024-02-23T04:26:42;99165.77;;;7.17;70.84
61474;BME280;53694;49.784;30.150;2024-02-23T04:27:44;99175.42;;;7.27;70.22
61474;BME280;53694;49.784;30.150;2024-02-23T04:28:45;99188.12;;;7.35;69.55
61474;BME280;53694;49.784;30.150;2024-02-23T04:29:47;99179.99;;;7.39;69.57
61474;BME280;53694;49.784;30.150;2024-02-23T04:30:48;99178.25;;;7.46;69.29
61474;BME280;53694;49.784;30.150;2024-02-23T04:31:50;99177.81;;;7.44;69.16
61474;BME280;53694;49.784;30.150;2024-02-23T04:32:51;99184.41;;;7.28;69.30
61474;BME280;53694;49.784;30.150;2024-02-23T04:33:53;99187.25;;;7.03;70.03
61474;BME280;53694;49.784;30.150;2024-02-23T04:34:55;99187.23;;;6.75;70.98
61474;BME280;53694;49.784;30.150;2024-02-23T04:35:57;99189.47;;;6.45;71.91
61474;BME280;53694;49.784;30.150;2024-02-23T04:36:59;99187.48;;;6.17;73.01
61474;BME280;53694;49.784;30.150;2024-02-23T04:38:00;99195.32;;;6.07;73.84
61474;BME280;53694;49.784;30.150;2024-02-23T04:39:02;99191.92;;;6.10;74.21
61474;BME280;53694;49.784;30.150;2024-02-23T04:40:05;99188.72;;;6.20;74.03
61474;BME280;53694;49.784;30.150;2024-02-23T04:41:06;99196.20;;;6.35;73.76
61474;BME280;53694;49.784;30.150;2024-02-23T04:42:08;99187.33;;;6.50;73.17
61474;BME280;53694;49.784;30.150;2024-02-23T04:43:09;99193.19;;;6.65;72.71
61474;BME280;53694;49.784;30.150;2024-02-23T04:44:11;99194.84;;;6.82;72.22
61474;BME280;53694;49.784;30.150;2024-02-23T04:45:12;99196.02;;;6.96;71.51
61474;BME280;53694;49.784;30.150;2024-02-23T04:46:15;99194.85;;;7.10;71.17
61474;BME280;53694;49.784;30.150;2024-02-23T04:47:16;99193.64;;;7.23;70.57
61474;BME280;53694;49.784;30.150;2024-02-23T04:48:18;99193.48;;;7.32;70.21
61474;BME280;53694;49.784;30.150;2024-02-23T04:49:19;99195.95;;;7.37;69.73
61474;BME280;53694;49.784;30.150;2024-02-23T04:50:21;99200.47;;;7.45;69.66
61474;BME280;53694;49.784;30.150;2024-02-23T04:51:23;99199.05;;;7.51;69.30
61474;BME280;53694;49.784;30.150;2024-02-23T04:52:24;99195.52;;;7.50;68.91
61474;BME280;53694;49.784;30.150;2024-02-23T04:53:26;99202.01;;;7.30;69.25
61474;BME280;53694;49.784;30.150;2024-02-23T04:54:27;99199.85;;;7.08;70.05
61474;BME280;53694;49.784;30.150;2024-02-23T04:55:31;99198.97;;;6.75;70.87
61474;BME280;53694;49.784;30.150;2024-02-23T04:56:32;99200.08;;;6.34;72.22
61474;BME280;53694;49.784;30.150;2024-02-23T04:57:36;99203.17;;;6.08;73.48
61474;BME280;53694;49.784;30.150;2024-02-23T04:58:37;99198.16;;;5.98;74.18
61474;BME280;53694;49.784;30.150;2024-02-23T04:59:39;99204.88;;;6.00;74.58
61474;BME280;53694;49.784;30.150;2024-02-23T05:00:41;99215.78;;;6.13;74.60
61474;BME280;53694;49.784;30.150;2024-02-23T05:01:43;99210.08;;;6.30;74.21
61474;BME280;53694;49.784;30.150;2024-02-23T05:02:45;99205.95;;;6.48;73.57
61474;BME280;53694;49.784;30.150;2024-02-23T05:03:47;99219.00;;;6.67;73.13
61474;BME280;53694;49.784;30.150;2024-02-23T05:04:48;99210.17;;;6.86;72.44
61474;BME280;53694;49.784;30.150;2024-02-23T05:05:50;99220.37;;;7.01;71.61
61474;BME280;53694;49.784;30.150;2024-02-23T05:06:51;99219.60;;;7.17;71.24
61474;BME280;53694;49.784;30.150;2024-02-23T05:07:53;99209.77;;;7.28;70.43
61474;BME280;53694;49.784;30.150;2024-02-23T05:08:54;99211.30;;;7.41;70.21
61474;BME280;53694;49.784;30.150;2024-02-23T05:09:56;99213.86;;;7.50;69.60
61474;BME280;53694;49.784;30.150;2024-02-23T05:10:57;99215.27;;;7.60;69.57
61474;BME280;53694;49.784;30.150;2024-02-23T05:11:59;99214.31;;;7.68;68.80
61474;BME280;53694;49.784;30.150;2024-02-23T05:13:01;99210.69;;;7.64;68.75
61474;BME280;53694;49.784;30.150;2024-02-23T05:14:02;99204.18;;;7.53;68.89
61474;BME280;53694;49.784;30.150;2024-02-23T05:15:04;99206.69;;;7.30;69.41
61474;BME280;53694;49.784;30.150;2024-02-23T05:16:06;99219.47;;;6.97;70.25
61474;BME280;53694;49.784;30.150;2024-02-23T05:17:07;99214.47;;;6.59;71.43
61474;BME280;53694;49.784;30.150;2024-02-23T05:18:09;99216.89;;;6.24;72.81
61474;BME280;53694;49.784;30.150;2024-02-23T05:19:10;99220.76;;;5.98;74.14
61474;BME280;53694;49.784;30.150;2024-02-23T05:20:13;99224.70;;;5.89;74.92
61474;BME280;53694;49.784;30.150;2024-02-23T05:21:15;99221.46;;;5.95;75.18
61474;BME280;53694;49.784;30.150;2024-02-23T05:22:16;99225.78;;;6.09;75.04
61474;BME280;53694;49.784;30.150;2024-02-23T05:23:18;99227.91;;;6.28;74.60
61474;BME280;53694;49.784;30.150;2024-02-23T05:24:19;99223.11;;;6.49;73.88
61474;BME280;53694;49.784;30.150;2024-02-23T05:25:23;99221.73;;;6.67;73.25
61474;BME280;53694;49.784;30.150;2024-02-23T05:26:24;99232.91;;;6.90;72.79
61474;BME280;53694;49.784;30.150;2024-02-23T05:27:26;99223.73;;;7.11;71.89